sensor_id;sensor_type;location;lat;lon;timestamp;temperature;humidity
13322;DHT22;6730;46.248;6.930;2022-09-30T00:01:26;10.20;99.90
13322;DHT22;6730;46.248;6.930;2022-09-30T00:03:53;10.10;99.90
13322;DHT22;6730;46.248;6.930;2022-09-30T00:06:19;10.10;99.90
13322;DHT22;6730;46.248;6.930;2022-09-30T00:08:46;9.80;99.90
13322;DHT22;6730;46.248;6.930;2022-09-30T00:11:14;9.50;99.90
13322;DHT22;6730;46.248;6.930;2022-09-30T00:13:41;9.30;99.90
13322;DHT22;6730;46.248;6.930;2022-09-30T00:16:09;9.20;99.90
13322;DHT22;6730;46.248;6.930;2022-09-30T00:18:37;9.10;99.90
13322;DHT22;6730;46.248;6.930;2022-09-30T00:21:04;9.30;99.90
13322;DHT22;6730;46.248;6.930;2022-09-30T00:23:30;9.50;99.90
13322;DHT22;6730;46.248;6.930;2022-09-30T00:26:01;9.80;99.90
13322;DHT22;6730;46.248;6.930;2022-09-30T00:28:28;9.80;99.90
13322;DHT22;6730;46.248;6.930;2022-09-30T00:30:58;9.90;99.90
13322;DHT22;6730;46.248;6.930;2022-09-30T00:33:24;10.00;99.90
13322;DHT22;6730;46.248;6.930;2022-09-30T00:35:49;10.30;99.90
13322;DHT22;6730;46.248;6.930;2022-09-30T00:38:15;10.30;99.90
13322;DHT22;6730;46.248;6.930;2022-09-30T00:40:40;10.50;99.90
13322;DHT22;6730;46.248;6.930;2022-09-30T00:43:13;10.50;99.90
13322;DHT22;6730;46.248;6.930;2022-09-30T00:45:46;10.20;99.90
13322;DHT22;6730;46.248;6.930;2022-09-30T00:48:18;10.00;99.90
13322;DHT22;6730;46.248;6.930;2022-09-30T00:50:46;9.90;99.90
13322;DHT22;6730;46.248;6.930;2022-09-30T00:53:19;9.80;99.90
13322;DHT22;6730;46.248;6.930;2022-09-30T00:58:40;9.70;99.90
13322;DHT22;6730;46.248;6.930;2022-09-30T01:01:07;9.60;99.90
13322;DHT22;6730;46.248;6.930;2022-09-30T01:03:43;9.80;99.90
13322;DHT22;6730;46.248;6.930;2022-09-30T01:06:10;9.80;99.90
13322;DHT22;6730;46.248;6.930;2022-09-30T01:08:37;9.70;99.90
13322;DHT22;6730;46.248;6.930;2022-09-30T01:11:04;9.60;99.90
13322;DHT22;6730;46.248;6.930;2022-09-30T01:13:31;9.30;99.90
13322;DHT22;6730;46.248;6.930;2022-09-30T01:16:40;9.00;99.90
13322;DHT22;6730;46.248;6.930;2022-09-30T01:22:30;9.10;99.90
13322;DHT22;6730;46.248;6.930;2022-09-30T01:25:19;9.00;99.90
13322;DHT22;6730;46.248;6.930;2022-09-30T01:36:46;9.20;99.90
13322;DHT22;6730;46.248;6.930;2022-09-30T01:42:27;9.00;99.90
13322;DHT22;6730;46.248;6.930;2022-09-30T01:48:02;9.00;99.90
13322;DHT22;6730;46.248;6.930;2022-09-30T01:50:43;9.10;99.90
13322;DHT22;6730;46.248;6.930;2022-09-30T01:53:21;9.20;99.90
13322;DHT22;6730;46.248;6.930;2022-09-30T01:58:36;9.50;99.90
13322;DHT22;6730;46.248;6.930;2022-09-30T02:01:09;9.60;99.90
13322;DHT22;6730;46.248;6.930;2022-09-30T02:03:41;9.80;99.90
13322;DHT22;6730;46.248;6.930;2022-09-30T02:06:14;10.00;99.90
13322;DHT22;6730;46.248;6.930;2022-09-30T02:08:55;10.10;99.90
13322;DHT22;6730;46.248;6.930;2022-09-30T02:11:42;10.30;99.90
13322;DHT22;6730;46.248;6.930;2022-09-30T02:15:05;10.00;99.90
13322;DHT22;6730;46.248;6.930;2022-09-30T02:17:26;9.80;99.90
13322;DHT22;6730;46.248;6.930;2022-09-30T02:20:00;9.80;99.90
13322;DHT22;6730;46.248;6.930;2022-09-30T02:22:47;9.80;99.90
13322;DHT22;6730;46.248;6.930;2022-09-30T02:25:25;9.50;99.90
13322;DHT22;6730;46.248;6.930;2022-09-30T02:27:57;9.40;99.90
13322;DHT22;6730;46.248;6.930;2022-09-30T02:30:24;9.40;99.90
13322;DHT22;6730;46.248;6.930;2022-09-30T02:32:56;9.60;99.90
13322;DHT22;6730;46.248;6.930;2022-09-30T02:38:01;9.80;99.90
13322;DHT22;6730;46.248;6.930;2022-09-30T02:40:38;10.10;99.90
13322;DHT22;6730;46.248;6.930;2022-09-30T02:43:07;10.20;99.90
13322;DHT22;6730;46.248;6.930;2022-09-30T02:45:49;10.30;99.90
13322;DHT22;6730;46.248;6.930;2022-09-30T02:48:41;10.40;99.90
13322;DHT22;6730;46.248;6.930;2022-09-30T02:59:02;10.30;99.90
13322;DHT22;6730;46.248;6.930;2022-09-30T03:01:29;10.20;99.90
13322;DHT22;6730;46.248;6.930;2022-09-30T03:04:02;10.20;99.90
13322;DHT22;6730;46.248;6.930;2022-09-30T03:06:29;10.20;99.90
13322;DHT22;6730;46.248;6.930;2022-09-30T03:08:54;10.10;99.90
13322;DHT22;6730;46.248;6.930;2022-09-30T03:11:25;9.90;99.90
13322;DHT22;6730;46.248;6.930;2022-09-30T03:28:09;9.90;99.90
13322;DHT22;6730;46.248;6.930;2022-09-30T03:31:16;9.70;99.90
13322;DHT22;6730;46.248;6.930;2022-09-30T03:36:40;10.10;99.90
13322;DHT22;6730;46.248;6.930;2022-09-30T03:39:17;10.10;99.90
13322;DHT22;6730;46.248;6.930;2022-09-30T03:42:08;10.10;99.90
13322;DHT22;6730;46.248;6.930;2022-09-30T03:44:41;9.90;99.90
13322;DHT22;6730;46.248;6.930;2022-09-30T03:47:09;9.70;99.90
13322;DHT22;6730;46.248;6.930;2022-09-30T03:49:43;9.70;99.90
13322;DHT22;6730;46.248;6.930;2022-09-30T03:52:12;9.90;99.90
13322;DHT22;6730;46.248;6.930;2022-09-30T03:55:08;9.80;99.90
13322;DHT22;6730;46.248;6.930;2022-09-30T03:57:36;10.00;99.90
13322;DHT22;6730;46.248;6.930;2022-09-30T04:00:04;10.10;99.90
13322;DHT22;6730;46.248;6.930;2022-09-30T04:02:30;10.10;99.90
13322;DHT22;6730;46.248;6.930;2022-09-30T04:04:56;10.00;99.90
13322;DHT22;6730;46.248;6.930;2022-09-30T04:07:24;10.20;99.90
13322;DHT22;6730;46.248;6.930;2022-09-30T04:09:50;10.30;99.90
13322;DHT22;6730;46.248;6.930;2022-09-30T04:12:16;10.00;99.90
13322;DHT22;6730;46.248;6.930;2022-09-30T04:14:41;10.00;99.90
13322;DHT22;6730;46.248;6.930;2022-09-30T04:17:07;9.90;99.90
13322;DHT22;6730;46.248;6.930;2022-09-30T04:19:32;10.10;99.90
13322;DHT22;6730;46.248;6.930;2022-09-30T04:22:05;10.30;99.90
13322;DHT22;6730;46.248;6.930;2022-09-30T04:24:31;10.30;99.90
13322;DHT22;6730;46.248;6.930;2022-09-30T04:26:56;10.30;99.90
13322;DHT22;6730;46.248;6.930;2022-09-30T04:29:22;10.30;99.90
13322;DHT22;6730;46.248;6.930;2022-09-30T04:31:48;10.10;99.90
13322;DHT22;6730;46.248;6.930;2022-09-30T04:34:14;10.10;99.90
13322;DHT22;6730;46.248;6.930;2022-09-30T04:36:40;10.20;99.90
13322;DHT22;6730;46.248;6.930;2022-09-30T04:39:06;10.20;99.90
13322;DHT22;6730;46.248;6.930;2022-09-30T04:41:32;10.40;99.90
13322;DHT22;6730;46.248;6.930;2022-09-30T04:43:58;10.50;99.90
13322;DHT22;6730;46.248;6.930;2022-09-30T04:46:25;10.30;99.90
13322;DHT22;6730;46.248;6.930;2022-09-30T04:48:51;10.00;99.90
13322;DHT22;6730;46.248;6.930;2022-09-30T04:51:19;10.00;99.90
13322;DHT22;6730;46.248;6.930;2022-09-30T04:53:48;10.10;99.90
13322;DHT22;6730;46.248;6.930;2022-09-30T04:56:14;10.10;99.90
13322;DHT22;6730;46.248;6.930;2022-09-30T04:58:43;10.30;99.90
13322;DHT22;6730;46.248;6.930;2022-09-30T05:01:11;10.20;99.90
13322;DHT22;6730;46.248;6.930;2022-09-30T05:03:38;10.30;99.90
13322;DHT22;6730;46.248;6.930;2022-09-30T05:06:05;10.30;99.90
13322;DHT22;6730;46.248;6.930;2022-09-30T05:08:31;10.30;99.90
13322;DHT22;6730;46.248;6.930;2022-09-30T05:11:06;10.40;99.90
13322;DHT22;6730;46.248;6.930;2022-09-30T05:13:37;10.40;99.90
13322;DHT22;6730;46.248;6.930;2022-09-30T05:16:04;10.50;99.90
13322;DHT22;6730;46.248;6.930;2022-09-30T05:18:31;10.60;99.90
13322;DHT22;6730;46.248;6.930;2022-09-30T05:20:58;10.20;99.90
13322;DHT22;6730;46.248;6.930;2022-09-30T05:23:25;10.20;99.90
13322;DHT22;6730;46.248;6.930;2022-09-30T05:25:51;10.00;99.90
13322;DHT22;6730;46.248;6.930;2022-09-30T05:28:18;9.90;99.90
13322;DHT22;6730;46.248;6.930;2022-09-30T05:30:44;9.80;99.90
13322;DHT22;6730;46.248;6.930;2022-09-30T05:33:12;9.70;99.90
13322;DHT22;6730;46.248;6.930;2022-09-30T05:35:39;9.80;99.90
13322;DHT22;6730;46.248;6.930;2022-09-30T05:38:06;9.50;99.90
13322;DHT22;6730;46.248;6.930;2022-09-30T05:40:32;9.40;99.90
13322;DHT22;6730;46.248;6.930;2022-09-30T05:42:58;9.70;99.90
13322;DHT22;6730;46.248;6.930;2022-09-30T05:45:25;10.10;99.90
13322;DHT22;6730;46.248;6.930;2022-09-30T05:47:52;10.30;99.90
13322;DHT22;6730;46.248;6.930;2022-09-30T05:50:18;10.40;99.90
13322;DHT22;6730;46.248;6.930;2022-09-30T05:52:45;10.40;99.90
13322;DHT22;6730;46.248;6.930;2022-09-30T05:55:10;10.30;99.90
13322;DHT22;6730;46.248;6.930;2022-09-30T05:57:36;10.20;99.90
13322;DHT22;6730;46.248;6.930;2022-09-30T06:00:03;10.10;99.90
13322;DHT22;6730;46.248;6.930;2022-09-30T06:02:29;10.00;99.90
13322;DHT22;6730;46.248;6.930;2022-09-30T06:04:54;9.90;99.90
13322;DHT22;6730;46.248;6.930;2022-09-30T06:07:20;10.20;99.90
13322;DHT22;6730;46.248;6.930;2022-09-30T06:09:46;10.40;99.90
13322;DHT22;6730;46.248;6.930;2022-09-30T06:12:11;10.70;99.90
13322;DHT22;6730;46.248;6.930;2022-09-30T06:14:37;10.70;99.90
13322;DHT22;6730;46.248;6.930;2022-09-30T06:17:03;10.60;99.90
13322;DHT22;6730;46.248;6.930;2022-09-30T06:19:31;10.50;99.90
13322;DHT22;6730;46.248;6.930;2022-09-30T06:21:57;10.40;99.90
13322;DHT22;6730;46.248;6.930;2022-09-30T06:24:23;10.40;99.90
13322;DHT22;6730;46.248;6.930;2022-09-30T06:26:49;10.30;99.90
13322;DHT22;6730;46.248;6.930;2022-09-30T06:29:15;10.20;99.90
13322;DHT22;6730;46.248;6.930;2022-09-30T06:31:41;10.30;99.90
13322;DHT22;6730;46.248;6.930;2022-09-30T06:34:06;10.60;99.90
13322;DHT22;6730;46.248;6.930;2022-09-30T06:36:33;10.60;99.90
13322;DHT22;6730;46.248;6.930;2022-09-30T06:39:02;10.30;99.90
13322;DHT22;6730;46.248;6.930;2022-09-30T06:41:29;10.30;99.90
13322;DHT22;6730;46.248;6.930;2022-09-30T06:43:55;10.50;99.90
13322;DHT22;6730;46.248;6.930;2022-09-30T06:46:23;10.70;99.90
13322;DHT22;6730;46.248;6.930;2022-09-30T06:48:55;10.90;99.90
13322;DHT22;6730;46.248;6.930;2022-09-30T06:51:22;10.30;99.90
13322;DHT22;6730;46.248;6.930;2022-09-30T06:53:51;9.70;99.90
13322;DHT22;6730;46.248;6.930;2022-09-30T06:56:17;9.40;99.90
13322;DHT22;6730;46.248;6.930;2022-09-30T06:58:44;9.20;99.90
13322;DHT22;6730;46.248;6.930;2022-09-30T07:01:10;9.10;99.90
13322;DHT22;6730;46.248;6.930;2022-09-30T07:03:41;9.10;99.90
13322;DHT22;6730;46.248;6.930;2022-09-30T07:06:07;9.30;99.90
13322;DHT22;6730;46.248;6.930;2022-09-30T07:08:35;9.40;99.90
13322;DHT22;6730;46.248;6.930;2022-09-30T07:11:09;9.50;99.90
13322;DHT22;6730;46.248;6.930;2022-09-30T07:13:39;9.80;99.90
13322;DHT22;6730;46.248;6.930;2022-09-30T07:16:08;10.20;99.90
13322;DHT22;6730;46.248;6.930;2022-09-30T07:18:33;10.50;99.90
13322;DHT22;6730;46.248;6.930;2022-09-30T07:20:59;10.40;99.90
13322;DHT22;6730;46.248;6.930;2022-09-30T07:23:24;10.30;99.90
13322;DHT22;6730;46.248;6.930;2022-09-30T07:25:58;10.00;99.90
13322;DHT22;6730;46.248;6.930;2022-09-30T07:28:29;9.90;99.90
13322;DHT22;6730;46.248;6.930;2022-09-30T07:30:58;9.80;99.90
13322;DHT22;6730;46.248;6.930;2022-09-30T07:33:25;10.00;99.90
13322;DHT22;6730;46.248;6.930;2022-09-30T07:35:58;10.20;99.90
13322;DHT22;6730;46.248;6.930;2022-09-30T07:38:27;10.50;99.90
13322;DHT22;6730;46.248;6.930;2022-09-30T07:40:55;10.80;99.90
13322;DHT22;6730;46.248;6.930;2022-09-30T07:43:26;11.00;99.90
13322;DHT22;6730;46.248;6.930;2022-09-30T07:46:02;11.00;99.90
13322;DHT22;6730;46.248;6.930;2022-09-30T07:48:27;11.00;99.90
13322;DHT22;6730;46.248;6.930;2022-09-30T07:51:36;10.90;99.90
13322;DHT22;6730;46.248;6.930;2022-09-30T07:54:07;10.80;99.90
13322;DHT22;6730;46.248;6.930;2022-09-30T07:56:34;10.60;99.90
13322;DHT22;6730;46.248;6.930;2022-09-30T07:59:03;10.40;99.90
13322;DHT22;6730;46.248;6.930;2022-09-30T08:01:30;10.50;99.90
13322;DHT22;6730;46.248;6.930;2022-09-30T08:04:02;10.60;99.90
13322;DHT22;6730;46.248;6.930;2022-09-30T08:06:29;10.70;99.90
13322;DHT22;6730;46.248;6.930;2022-09-30T08:08:56;10.70;99.90
13322;DHT22;6730;46.248;6.930;2022-09-30T08:11:23;10.90;99.90
13322;DHT22;6730;46.248;6.930;2022-09-30T08:13:52;11.10;99.90
13322;DHT22;6730;46.248;6.930;2022-09-30T08:16:19;10.50;99.90
13322;DHT22;6730;46.248;6.930;2022-09-30T08:18:45;10.10;99.90
13322;DHT22;6730;46.248;6.930;2022-09-30T08:21:11;9.90;99.90
13322;DHT22;6730;46.248;6.930;2022-09-30T08:23:37;9.90;99.90
13322;DHT22;6730;46.248;6.930;2022-09-30T08:26:08;10.10;99.90
13322;DHT22;6730;46.248;6.930;2022-09-30T08:28:34;10.10;99.90
13322;DHT22;6730;46.248;6.930;2022-09-30T08:31:10;9.90;99.90
13322;DHT22;6730;46.248;6.930;2022-09-30T08:33:36;9.80;99.90
13322;DHT22;6730;46.248;6.930;2022-09-30T08:36:07;10.00;99.90
13322;DHT22;6730;46.248;6.930;2022-09-30T08:38:33;10.30;99.90
13322;DHT22;6730;46.248;6.930;2022-09-30T08:46:46;10.80;99.90
13322;DHT22;6730;46.248;6.930;2022-09-30T08:52:23;9.80;99.90
13322;DHT22;6730;46.248;6.930;2022-09-30T08:54:53;9.50;99.90
13322;DHT22;6730;46.248;6.930;2022-09-30T08:57:21;9.40;99.90
13322;DHT22;6730;46.248;6.930;2022-09-30T09:00:00;9.30;99.90
13322;DHT22;6730;46.248;6.930;2022-09-30T09:02:32;9.50;99.90
13322;DHT22;6730;46.248;6.930;2022-09-30T09:05:01;9.40;99.90
13322;DHT22;6730;46.248;6.930;2022-09-30T09:12:44;9.60;99.90
13322;DHT22;6730;46.248;6.930;2022-09-30T09:15:43;9.60;99.90
13322;DHT22;6730;46.248;6.930;2022-09-30T09:23:34;9.60;99.90
13322;DHT22;6730;46.248;6.930;2022-09-30T09:26:00;9.70;99.90
13322;DHT22;6730;46.248;6.930;2022-09-30T09:31:11;10.00;99.90
13322;DHT22;6730;46.248;6.930;2022-09-30T09:33:41;9.90;99.90
13322;DHT22;6730;46.248;6.930;2022-09-30T09:36:29;9.70;99.90
13322;DHT22;6730;46.248;6.930;2022-09-30T09:39:18;9.60;99.90
13322;DHT22;6730;46.248;6.930;2022-09-30T09:42:14;9.60;99.90
13322;DHT22;6730;46.248;6.930;2022-09-30T09:45:28;9.60;99.90
13322;DHT22;6730;46.248;6.930;2022-09-30T09:47:56;9.60;99.90
13322;DHT22;6730;46.248;6.930;2022-09-30T09:50:35;9.70;99.90
13322;DHT22;6730;46.248;6.930;2022-09-30T09:56:23;9.60;99.90
13322;DHT22;6730;46.248;6.930;2022-09-30T09:59:16;9.70;99.90
13322;DHT22;6730;46.248;6.930;2022-09-30T10:01:50;9.80;99.90
13322;DHT22;6730;46.248;6.930;2022-09-30T10:14:33;9.80;99.90
13322;DHT22;6730;46.248;6.930;2022-09-30T10:17:02;9.80;99.90
13322;DHT22;6730;46.248;6.930;2022-09-30T10:19:31;9.80;99.90
13322;DHT22;6730;46.248;6.930;2022-09-30T10:22:19;9.80;99.90
13322;DHT22;6730;46.248;6.930;2022-09-30T10:24:45;9.80;99.90
13322;DHT22;6730;46.248;6.930;2022-09-30T10:27:27;9.90;99.90
13322;DHT22;6730;46.248;6.930;2022-09-30T10:29:53;10.00;99.90
13322;DHT22;6730;46.248;6.930;2022-09-30T10:32:19;10.10;99.90
13322;DHT22;6730;46.248;6.930;2022-09-30T10:34:54;10.00;99.90
13322;DHT22;6730;46.248;6.930;2022-09-30T10:37:22;10.10;99.90
13322;DHT22;6730;46.248;6.930;2022-09-30T10:39:59;10.40;99.90
13322;DHT22;6730;46.248;6.930;2022-09-30T10:42:31;10.80;99.90
13322;DHT22;6730;46.248;6.930;2022-09-30T10:45:02;11.20;99.90
13322;DHT22;6730;46.248;6.930;2022-09-30T10:47:28;11.10;99.90
13322;DHT22;6730;46.248;6.930;2022-09-30T10:52:45;11.10;99.90
13322;DHT22;6730;46.248;6.930;2022-09-30T10:57:43;10.80;99.90
13322;DHT22;6730;46.248;6.930;2022-09-30T11:00:19;10.80;99.90
13322;DHT22;6730;46.248;6.930;2022-09-30T11:02:59;11.10;99.90
13322;DHT22;6730;46.248;6.930;2022-09-30T11:05:33;11.20;99.90
13322;DHT22;6730;46.248;6.930;2022-09-30T11:08:04;11.20;99.90
13322;DHT22;6730;46.248;6.930;2022-09-30T11:16:33;11.20;99.90
13322;DHT22;6730;46.248;6.930;2022-09-30T11:19:11;11.30;99.90
13322;DHT22;6730;46.248;6.930;2022-09-30T11:21:45;11.20;99.90
13322;DHT22;6730;46.248;6.930;2022-09-30T11:35:43;10.50;99.90
13322;DHT22;6730;46.248;6.930;2022-09-30T11:41:06;10.60;99.90
13322;DHT22;6730;46.248;6.930;2022-09-30T11:54:37;10.90;99.90
13322;DHT22;6730;46.248;6.930;2022-09-30T11:57:26;10.80;99.90
13322;DHT22;6730;46.248;6.930;2022-09-30T12:00:00;11.10;99.90
13322;DHT22;6730;46.248;6.930;2022-09-30T12:02:36;11.10;99.90
13322;DHT22;6730;46.248;6.930;2022-09-30T12:05:10;11.10;99.90
13322;DHT22;6730;46.248;6.930;2022-09-30T12:07:42;11.10;99.90
13322;DHT22;6730;46.248;6.930;2022-09-30T12:10:30;11.30;99.90
13322;DHT22;6730;46.248;6.930;2022-09-30T12:13:20;11.20;99.90
13322;DHT22;6730;46.248;6.930;2022-09-30T12:15:48;11.10;99.90
13322;DHT22;6730;46.248;6.930;2022-09-30T12:18:41;10.90;99.90
13322;DHT22;6730;46.248;6.930;2022-09-30T12:21:21;11.00;99.90
13322;DHT22;6730;46.248;6.930;2022-09-30T12:23:55;11.10;99.90
13322;DHT22;6730;46.248;6.930;2022-09-30T12:26:23;11.40;99.90
13322;DHT22;6730;46.248;6.930;2022-09-30T12:28:59;11.70;99.90
13322;DHT22;6730;46.248;6.930;2022-09-30T12:35:11;11.80;99.90
13322;DHT22;6730;46.248;6.930;2022-09-30T12:40:10;11.90;99.90
13322;DHT22;6730;46.248;6.930;2022-09-30T12:47:52;11.10;99.90
13322;DHT22;6730;46.248;6.930;2022-09-30T12:50:22;11.20;99.90
13322;DHT22;6730;46.248;6.930;2022-09-30T12:52:51;11.30;99.90
13322;DHT22;6730;46.248;6.930;2022-09-30T12:55:25;11.30;99.90
13322;DHT22;6730;46.248;6.930;2022-09-30T12:57:54;11.30;99.90
13322;DHT22;6730;46.248;6.930;2022-09-30T13:00:31;11.20;99.90
13322;DHT22;6730;46.248;6.930;2022-09-30T13:03:07;11.20;99.90
13322;DHT22;6730;46.248;6.930;2022-09-30T13:13:20;11.60;99.90
13322;DHT22;6730;46.248;6.930;2022-09-30T13:15:49;11.80;99.90
13322;DHT22;6730;46.248;6.930;2022-09-30T13:23:54;12.50;99.90
13322;DHT22;6730;46.248;6.930;2022-09-30T13:28:53;12.80;99.90
13322;DHT22;6730;46.248;6.930;2022-09-30T13:31:24;12.30;99.90
13322;DHT22;6730;46.248;6.930;2022-09-30T13:36:30;12.30;99.90
13322;DHT22;6730;46.248;6.930;2022-09-30T13:42:32;12.50;99.90
13322;DHT22;6730;46.248;6.930;2022-09-30T13:47:47;12.80;99.90
13322;DHT22;6730;46.248;6.930;2022-09-30T13:52:30;13.20;99.90
13322;DHT22;6730;46.248;6.930;2022-09-30T13:55:04;12.60;99.90
13322;DHT22;6730;46.248;6.930;2022-09-30T13:57:43;12.30;99.90
13322;DHT22;6730;46.248;6.930;2022-09-30T14:00:15;12.10;99.90
13322;DHT22;6730;46.248;6.930;2022-09-30T14:11:34;12.50;99.90
13322;DHT22;6730;46.248;6.930;2022-09-30T14:17:21;12.60;99.90
13322;DHT22;6730;46.248;6.930;2022-09-30T14:22:35;12.40;99.90
13322;DHT22;6730;46.248;6.930;2022-09-30T14:25:02;12.50;99.90
13322;DHT22;6730;46.248;6.930;2022-09-30T14:30:16;12.50;99.90
13322;DHT22;6730;46.248;6.930;2022-09-30T14:35:38;12.40;99.90
13322;DHT22;6730;46.248;6.930;2022-09-30T14:38:27;12.40;99.90
13322;DHT22;6730;46.248;6.930;2022-09-30T14:40:57;12.10;99.90
13322;DHT22;6730;46.248;6.930;2022-09-30T14:43:30;11.90;99.90
13322;DHT22;6730;46.248;6.930;2022-09-30T14:46:04;12.10;99.90
13322;DHT22;6730;46.248;6.930;2022-09-30T14:48:33;12.40;99.90
13322;DHT22;6730;46.248;6.930;2022-09-30T14:51:00;12.50;99.90
13322;DHT22;6730;46.248;6.930;2022-09-30T14:53:56;12.20;99.90
13322;DHT22;6730;46.248;6.930;2022-09-30T14:56:33;12.10;99.90
13322;DHT22;6730;46.248;6.930;2022-09-30T14:59:07;12.30;99.90
13322;DHT22;6730;46.248;6.930;2022-09-30T15:01:37;12.30;99.90
13322;DHT22;6730;46.248;6.930;2022-09-30T15:04:18;12.40;99.90
13322;DHT22;6730;46.248;6.930;2022-09-30T15:06:47;12.60;99.90
13322;DHT22;6730;46.248;6.930;2022-09-30T15:09:24;12.60;99.90
13322;DHT22;6730;46.248;6.930;2022-09-30T15:11:51;12.70;99.90
13322;DHT22;6730;46.248;6.930;2022-09-30T15:14:20;12.50;99.90
13322;DHT22;6730;46.248;6.930;2022-09-30T15:16:47;12.40;99.90
13322;DHT22;6730;46.248;6.930;2022-09-30T15:19:24;12.50;99.90
13322;DHT22;6730;46.248;6.930;2022-09-30T15:21:53;12.60;99.90
13322;DHT22;6730;46.248;6.930;2022-09-30T15:24:20;12.70;99.90
13322;DHT22;6730;46.248;6.930;2022-09-30T15:26:47;12.60;99.90
13322;DHT22;6730;46.248;6.930;2022-09-30T15:29:15;12.60;99.90
13322;DHT22;6730;46.248;6.930;2022-09-30T15:31:56;12.70;99.90
13322;DHT22;6730;46.248;6.930;2022-09-30T15:34:24;12.80;99.90
13322;DHT22;6730;46.248;6.930;2022-09-30T15:37:01;12.90;99.90
13322;DHT22;6730;46.248;6.930;2022-09-30T15:39:47;12.90;99.90
13322;DHT22;6730;46.248;6.930;2022-09-30T15:43:02;13.00;99.90
13322;DHT22;6730;46.248;6.930;2022-09-30T15:50:54;12.90;99.90
13322;DHT22;6730;46.248;6.930;2022-09-30T15:56:23;13.00;99.90
13322;DHT22;6730;46.248;6.930;2022-09-30T15:59:02;13.00;99.90
13322;DHT22;6730;46.248;6.930;2022-09-30T16:09:07;13.50;99.90
13322;DHT22;6730;46.248;6.930;2022-09-30T16:11:47;13.10;99.90
13322;DHT22;6730;46.248;6.930;2022-09-30T16:14:24;12.20;99.90
13322;DHT22;6730;46.248;6.930;2022-09-30T16:16:57;11.70;99.90
13322;DHT22;6730;46.248;6.930;2022-09-30T16:19:24;11.60;99.90
13322;DHT22;6730;46.248;6.930;2022-09-30T16:21:52;11.90;99.90
13322;DHT22;6730;46.248;6.930;2022-09-30T16:26:55;12.70;99.90
13322;DHT22;6730;46.248;6.930;2022-09-30T16:29:23;12.60;99.90
13322;DHT22;6730;46.248;6.930;2022-09-30T16:31:52;12.80;99.90
13322;DHT22;6730;46.248;6.930;2022-09-30T16:34:20;13.00;99.90
13322;DHT22;6730;46.248;6.930;2022-09-30T16:36:47;13.40;99.90
13322;DHT22;6730;46.248;6.930;2022-09-30T16:39:14;13.50;99.90
13322;DHT22;6730;46.248;6.930;2022-09-30T16:41:41;13.60;99.90
13322;DHT22;6730;46.248;6.930;2022-09-30T16:44:08;13.70;99.90
13322;DHT22;6730;46.248;6.930;2022-09-30T16:46:34;13.90;99.90
13322;DHT22;6730;46.248;6.930;2022-09-30T16:49:20;14.00;99.90
13322;DHT22;6730;46.248;6.930;2022-09-30T16:51:46;14.20;99.90
13322;DHT22;6730;46.248;6.930;2022-09-30T16:54:12;14.20;99.90
13322;DHT22;6730;46.248;6.930;2022-09-30T16:56:38;14.10;99.90
13322;DHT22;6730;46.248;6.930;2022-09-30T16:59:08;14.10;99.90
13322;DHT22;6730;46.248;6.930;2022-09-30T17:01:37;14.10;99.90
13322;DHT22;6730;46.248;6.930;2022-09-30T17:04:03;14.20;99.90
13322;DHT22;6730;46.248;6.930;2022-09-30T17:06:30;14.40;99.90
13322;DHT22;6730;46.248;6.930;2022-09-30T17:08:57;14.20;99.90
13322;DHT22;6730;46.248;6.930;2022-09-30T17:11:24;14.20;99.90
13322;DHT22;6730;46.248;6.930;2022-09-30T17:13:56;14.30;99.90
13322;DHT22;6730;46.248;6.930;2022-09-30T17:16:22;14.30;99.90
13322;DHT22;6730;46.248;6.930;2022-09-30T17:18:49;13.50;99.90
13322;DHT22;6730;46.248;6.930;2022-09-30T17:21:19;13.10;99.90
13322;DHT22;6730;46.248;6.930;2022-09-30T17:23:45;12.70;99.90
13322;DHT22;6730;46.248;6.930;2022-09-30T17:26:10;12.70;99.90
13322;DHT22;6730;46.248;6.930;2022-09-30T17:28:36;12.60;99.90
13322;DHT22;6730;46.248;6.930;2022-09-30T17:31:01;12.80;99.90
13322;DHT22;6730;46.248;6.930;2022-09-30T17:33:32;12.90;99.90
13322;DHT22;6730;46.248;6.930;2022-09-30T17:36:16;13.10;99.90
13322;DHT22;6730;46.248;6.930;2022-09-30T17:38:43;13.30;99.90
13322;DHT22;6730;46.248;6.930;2022-09-30T17:41:16;13.30;99.90
13322;DHT22;6730;46.248;6.930;2022-09-30T17:44:00;13.30;99.90
13322;DHT22;6730;46.248;6.930;2022-09-30T17:46:26;13.10;99.90
13322;DHT22;6730;46.248;6.930;2022-09-30T17:48:55;12.90;99.90
13322;DHT22;6730;46.248;6.930;2022-09-30T17:51:21;12.80;99.90
13322;DHT22;6730;46.248;6.930;2022-09-30T17:53:47;12.70;99.90
13322;DHT22;6730;46.248;6.930;2022-09-30T17:56:16;12.60;99.90
13322;DHT22;6730;46.248;6.930;2022-09-30T17:58:44;12.30;99.90
13322;DHT22;6730;46.248;6.930;2022-09-30T18:01:11;12.00;99.90
13322;DHT22;6730;46.248;6.930;2022-09-30T18:03:38;12.10;99.90
13322;DHT22;6730;46.248;6.930;2022-09-30T18:06:04;12.20;99.90
13322;DHT22;6730;46.248;6.930;2022-09-30T18:08:30;12.30;99.90
13322;DHT22;6730;46.248;6.930;2022-09-30T18:10:56;12.30;99.90
13322;DHT22;6730;46.248;6.930;2022-09-30T18:13:23;12.30;99.90
13322;DHT22;6730;46.248;6.930;2022-09-30T18:15:49;12.30;99.90
13322;DHT22;6730;46.248;6.930;2022-09-30T18:18:14;12.30;99.90
13322;DHT22;6730;46.248;6.930;2022-09-30T18:20:48;12.40;99.90
13322;DHT22;6730;46.248;6.930;2022-09-30T18:23:15;12.30;99.90
13322;DHT22;6730;46.248;6.930;2022-09-30T18:25:44;12.30;99.90
13322;DHT22;6730;46.248;6.930;2022-09-30T18:28:11;12.30;99.90
13322;DHT22;6730;46.248;6.930;2022-09-30T18:30:38;12.50;99.90
13322;DHT22;6730;46.248;6.930;2022-09-30T18:33:05;12.70;99.90
13322;DHT22;6730;46.248;6.930;2022-09-30T18:35:33;12.50;99.90
13322;DHT22;6730;46.248;6.930;2022-09-30T18:37:59;12.50;99.90
13322;DHT22;6730;46.248;6.930;2022-09-30T18:40:27;12.50;99.90
13322;DHT22;6730;46.248;6.930;2022-09-30T18:42:54;12.60;99.90
13322;DHT22;6730;46.248;6.930;2022-09-30T18:45:25;12.80;99.90
13322;DHT22;6730;46.248;6.930;2022-09-30T18:47:53;12.80;99.90
13322;DHT22;6730;46.248;6.930;2022-09-30T18:50:20;12.60;99.90
13322;DHT22;6730;46.248;6.930;2022-09-30T18:52:47;12.40;99.90
13322;DHT22;6730;46.248;6.930;2022-09-30T18:55:13;12.30;99.90
13322;DHT22;6730;46.248;6.930;2022-09-30T18:57:39;12.20;99.90
13322;DHT22;6730;46.248;6.930;2022-09-30T19:00:06;11.80;99.90
13322;DHT22;6730;46.248;6.930;2022-09-30T19:02:36;11.60;99.90
13322;DHT22;6730;46.248;6.930;2022-09-30T19:05:07;11.60;99.90
13322;DHT22;6730;46.248;6.930;2022-09-30T19:07:33;11.80;99.90
13322;DHT22;6730;46.248;6.930;2022-09-30T19:10:00;11.80;99.90
13322;DHT22;6730;46.248;6.930;2022-09-30T19:12:32;11.70;99.90
13322;DHT22;6730;46.248;6.930;2022-09-30T19:15:07;11.70;99.90
13322;DHT22;6730;46.248;6.930;2022-09-30T19:17:33;11.80;99.90
13322;DHT22;6730;46.248;6.930;2022-09-30T19:20:02;12.00;99.90
13322;DHT22;6730;46.248;6.930;2022-09-30T19:22:28;12.40;99.90
13322;DHT22;6730;46.248;6.930;2022-09-30T19:24:54;12.60;99.90
13322;DHT22;6730;46.248;6.930;2022-09-30T19:27:20;12.70;99.90
13322;DHT22;6730;46.248;6.930;2022-09-30T19:29:48;12.70;99.90
13322;DHT22;6730;46.248;6.930;2022-09-30T19:32:15;12.40;99.90
13322;DHT22;6730;46.248;6.930;2022-09-30T19:34:41;12.20;99.90